Time;durP1;ratioP1;P1;durP2;ratioP2;P2;SDS_P1;SDS_P2;PMS_P1;PMS_P2;Temp;Humidity;BMP_temperature;BMP_pressure;BME280_temperature;BME280_humidity;BME280_pressure;Samples;Min_cycle;Max_cycle;Signal;HPM_P1;HPM_P2
2022/03/02 00:00:44;;;;;;;3.03;1.98;;;;;;;21.33;nan;99924.44;5109407;28;20055;-63
2022/03/02 00:03:10;;;;;;;2.80;1.85;;;;;;;21.35;nan;99933.22;5109268;28;20457;-63
2022/03/02 00:05:36;;;;;;;2.97;1.98;;;;;;;21.32;nan;99928.38;5109328;28;20530;-63
2022/03/02 00:08:03;;;;;;;3.40;2.10;;;;;;;21.34;nan;99926.03;5110960;28;20040;-63
2022/03/02 00:10:29;;;;;;;2.83;1.80;;;;;;;21.35;nan;99922.06;5112784;28;20410;-64
2022/03/02 00:12:55;;;;;;;3.10;2.03;;;;;;;21.34;nan;99917.69;5112293;28;20123;-63
2022/03/02 00:15:20;;;;;;;2.85;1.83;;;;;;;21.34;nan;99922.44;5112559;28;20048;-63
2022/03/02 00:17:46;;;;;;;3.05;1.85;;;;;;;21.31;nan;99915.66;5112765;28;20043;-64
2022/03/02 00:20:12;;;;;;;3.10;1.80;;;;;;;21.31;nan;99920.41;5112789;28;20421;-63
2022/03/02 00:22:39;;;;;;;3.15;2.00;;;;;;;21.29;nan;99920.78;5112679;28;20419;-63
2022/03/02 00:25:05;;;;;;;3.13;2.00;;;;;;;21.30;nan;99913.25;5112728;28;20046;-63
2022/03/02 00:27:31;;;;;;;2.70;1.75;;;;;;;21.29;nan;99917.16;5112868;28;20040;-63
2022/03/02 00:29:57;;;;;;;2.63;1.70;;;;;;;21.29;nan;99917.16;5111227;28;20139;-63
2022/03/02 00:32:22;;;;;;;2.78;1.80;;;;;;;21.28;nan;99919.16;5112234;28;20583;-64
2022/03/02 00:34:48;;;;;;;3.13;2.20;;;;;;;21.28;nan;99921.94;5112415;28;20084;-63
2022/03/02 00:37:14;;;;;;;2.50;1.70;;;;;;;21.28;nan;99910.81;5112268;28;20089;-63
2022/03/02 00:39:41;;;;;;;2.70;1.98;;;;;;;21.27;nan;99911.94;5112400;28;20084;-63
2022/03/02 00:42:06;;;;;;;2.92;1.90;;;;;;;21.27;nan;99911.94;5112351;28;20044;-63
2022/03/02 00:44:33;;;;;;;2.50;1.58;;;;;;;21.28;nan;99908.03;5112302;28;20457;-63
2022/03/02 00:46:59;;;;;;;3.00;1.88;;;;;;;21.27;nan;99913.94;5112296;28;20039;-64
2022/03/02 00:49:26;;;;;;;2.60;1.77;;;;;;;21.26;nan;99906.75;5112198;28;20051;-64
2022/03/02 00:51:54;;;;;;;3.42;1.90;;;;;;;21.22;nan;99909.47;5110962;28;20096;-64
2022/03/02 00:54:20;;;;;;;2.90;1.98;;;;;;;21.25;nan;99903.16;5112165;28;20050;-65
2022/03/02 00:56:45;;;;;;;2.88;1.92;;;;;;;21.27;nan;99908.34;5111949;28;20043;-64
2022/03/02 00:59:11;;;;;;;2.92;1.90;;;;;;;21.28;nan;99913.59;5112257;28;20090;-64
2022/03/02 01:01:39;;;;;;;2.92;2.00;;;;;;;21.27;nan;99903.59;5112179;28;20039;-62
2022/03/02 01:04:07;;;;;;;3.03;1.88;;;;;;;21.23;nan;99897.16;5112004;28;20613;-62
2022/03/02 01:06:33;;;;;;;2.72;1.77;;;;;;;21.24;nan;99900.75;5111797;28;20040;-62
2022/03/02 01:08:58;;;;;;;3.50;2.20;;;;;;;21.22;nan;99892.78;5111935;28;20130;-62
2022/03/02 01:11:26;;;;;;;2.92;1.90;;;;;;;21.23;nan;99899.16;5112088;28;20136;-63
2022/03/02 01:13:51;;;;;;;3.25;1.98;;;;;;;21.24;nan;99903.53;5111997;28;20047;-63
2022/03/02 01:16:17;;;;;;;3.40;2.00;;;;;;;21.22;nan;99901.13;5111595;28;20036;-63
2022/03/02 01:18:43;;;;;;;2.70;1.75;;;;;;;21.21;nan;99907.84;5111344;28;20052;-63
2022/03/02 01:21:09;;;;;;;3.15;1.98;;;;;;;21.21;nan;99899.50;5110912;28;20119;-64
2022/03/02 01:23:34;;;;;;;2.95;1.88;;;;;;;21.23;nan;99904.72;5111412;28;20050;-64
2022/03/02 01:26:00;;;;;;;3.25;2.10;;;;;;;21.20;nan;99909.00;5111672;28;20397;-64
2022/03/02 01:28:26;;;;;;;2.95;2.05;;;;;;;21.21;nan;99898.69;5111812;28;20077;-64
2022/03/02 01:30:51;;;;;;;3.38;2.10;;;;;;;21.22;nan;99903.91;5111799;28;20044;-64
2022/03/02 01:33:17;;;;;;;2.75;2.10;;;;;;;21.21;nan;99898.69;5111466;28;20063;-64
2022/03/02 01:35:42;;;;;;;3.47;2.20;;;;;;;21.21;nan;99907.84;5111524;28;20040;-64
2022/03/02 01:38:07;;;;;;;2.92;2.00;;;;;;;21.21;nan;99907.84;5109561;28;20047;-64
2022/03/02 01:40:33;;;;;;;3.58;2.38;;;;;;;21.19;nan;99904.63;5110838;28;20052;-64
2022/03/02 01:42:58;;;;;;;3.35;2.20;;;;;;;21.16;nan;99900.59;5111279;28;20423;-64
2022/03/02 01:45:24;;;;;;;3.50;2.20;;;;;;;21.19;nan;99910.19;5111564;28;20411;-63
2022/03/02 01:47:50;;;;;;;3.53;2.15;;;;;;;21.17;nan;99906.97;5109980;28;20077;-63
2022/03/02 01:50:16;;;;;;;3.22;2.13;;;;;;;21.17;nan;99909.75;5111142;28;20093;-63
2022/03/02 01:52:41;;;;;;;2.92;1.98;;;;;;;21.19;nan;99903.81;5111282;28;20529;-65
2022/03/02 01:55:11;;;;;;;3.33;2.28;;;;;;;21.16;nan;99894.25;5110999;28;20044;-63
2022/03/02 01:57:36;;;;;;;3.58;2.45;;;;;;;21.16;nan;99895.03;5111143;28;20106;-63
2022/03/02 02:00:07;;;;;;;3.15;2.17;;;;;;;21.13;nan;99897.75;5111147;28;20156;-62
2022/03/02 02:02:33;;;;;;;3.13;2.40;;;;;;;21.11;nan;99898.09;5111127;28;20510;-62
2022/03/02 02:04:58;;;;;;;3.55;2.35;;;;;;;21.13;nan;99900.53;5111107;28;20485;-62
2022/03/02 02:07:25;;;;;;;3.58;2.30;;;;;;;21.16;nan;99894.25;5110947;28;20387;-62
2022/03/02 02:09:52;;;;;;;3.50;2.30;;;;;;;21.13;nan;99900.53;5110889;28;20118;-63
2022/03/02 02:12:18;;;;;;;3.55;2.30;;;;;;;21.15;nan;99889.84;5110870;28;20551;-63
2022/03/02 02:14:44;;;;;;;3.55;2.10;;;;;;;21.13;nan;99883.84;5110582;28;20579;-63
2022/03/02 02:17:09;;;;;;;3.10;2.25;;;;;;;21.15;nan;99890.66;5110522;28;20067;-63
2022/03/02 02:19:35;;;;;;;3.53;2.22;;;;;;;21.13;nan;99886.63;5110597;28;20128;-63
2022/03/02 02:22:00;;;;;;;3.55;2.40;;;;;;;21.12;nan;99893.34;5110620;28;20441;-63
2022/03/02 02:24:26;;;;;;;4.07;2.28;;;;;;;21.12;nan;99887.78;5110501;28;20499;-63
2022/03/02 02:26:52;;;;;;;3.20;2.20;;;;;;;21.10;nan;99884.56;5110583;28;20407;-63
2022/03/02 02:29:19;;;;;;;3.17;2.00;;;;;;;21.12;nan;99888.59;5110162;28;20508;-65
2022/03/02 02:31:45;;;;;;;2.97;2.08;;;;;;;21.12;nan;99887.78;5109991;28;20047;-63
2022/03/02 02:34:10;;;;;;;2.95;2.05;;;;;;;21.12;nan;99885.00;5110738;28;20039;-63
2022/03/02 02:36:38;;;;;;;3.55;2.20;;;;;;;21.12;nan;99887.78;5110590;28;20040;-63
2022/03/02 02:39:04;;;;;;;3.75;2.28;;;;;;;21.13;nan;99878.25;5109376;28;20082;-63
2022/03/02 02:41:29;;;;;;;3.33;2.30;;;;;;;21.12;nan;99879.44;5110704;28;20089;-63
2022/03/02 02:43:55;;;;;;;2.63;1.75;;;;;;;21.10;nan;99879.00;5110382;28;20415;-63
2022/03/02 02:46:20;;;;;;;3.05;1.95;;;;;;;21.10;nan;99879.81;5110454;28;20527;-63
2022/03/02 02:48:46;;;;;;;2.72;1.70;;;;;;;21.09;nan;99885.75;5110208;28;20454;-63
2022/03/02 02:51:11;;;;;;;2.67;1.98;;;;;;;21.07;nan;99880.53;5110225;28;21345;-63
2022/03/02 02:53:36;;;;;;;3.33;2.15;;;;;;;21.10;nan;99885.38;5110219;28;20123;-63
2022/03/02 02:56:03;;;;;;;3.00;2.00;;;;;;;21.09;nan;99883.78;5109880;28;20466;-63
2022/03/02 02:58:28;;;;;;;2.97;2.00;;;;;;;21.10;nan;99879.81;5110076;28;20058;-63
2022/03/02 03:00:54;;;;;;;2.75;1.92;;;;;;;21.09;nan;99877.41;5110106;28;20130;-63
2022/03/02 03:03:19;;;;;;;3.28;2.17;;;;;;;21.09;nan;99877.41;5110238;28;20085;-63
2022/03/02 03:05:45;;;;;;;2.80;1.90;;;;;;;21.07;nan;99877.75;5110136;28;20418;-63
2022/03/02 03:08:12;;;;;;;3.47;2.30;;;;;;;21.07;nan;99879.72;5109812;28;20082;-63
2022/03/02 03:10:40;;;;;;;3.22;2.08;;;;;;;21.08;nan;99881.34;5109955;28;20475;-63
2022/03/02 03:13:06;;;;;;;3.03;1.80;;;;;;;21.08;nan;99876.59;5109361;28;20100;-64
2022/03/02 03:15:31;;;;;;;3.10;2.40;;;;;;;21.08;nan;99878.56;5109860;28;20040;-64
2022/03/02 03:17:57;;;;;;;3.30;2.00;;;;;;;21.09;nan;99877.41;5109704;28;20062;-64
2022/03/02 03:20:25;;;;;;;3.33;2.05;;;;;;;21.10;nan;99879.81;5109897;28;20134;-64
2022/03/02 03:22:52;;;;;;;3.35;2.40;;;;;;;21.08;nan;99875.78;5109901;28;20062;-64
2022/03/02 03:25:18;;;;;;;3.75;2.40;;;;;;;21.08;nan;99881.34;5109913;28;20400;-63
2022/03/02 03:27:44;;;;;;;3.80;2.50;;;;;;;21.09;nan;99880.19;5109533;28;20039;-63
2022/03/02 03:30:12;;;;;;;3.40;2.28;;;;;;;21.08;nan;99881.34;5109814;28;20134;-63
2022/03/02 03:32:37;;;;;;;3.10;2.08;;;;;;;21.08;nan;99878.56;5109576;28;20530;-64
2022/03/02 03:35:05;;;;;;;3.53;2.53;;;;;;;21.09;nan;99877.41;5108933;28;20040;-63
2022/03/02 03:37:30;;;;;;;3.40;2.30;;;;;;;21.07;nan;99874.16;5109835;28;20043;-63
2022/03/02 03:39:56;;;;;;;4.20;2.67;;;;;;;21.06;nan;99872.56;5108923;28;20459;-63
2022/03/02 03:42:23;;;;;;;3.45;2.30;;;;;;;21.08;nan;99875.78;5110459;28;20067;-63
2022/03/02 03:44:49;;;;;;;3.10;2.40;;;;;;;21.06;nan;99873.34;5113414;28;20134;-63
2022/03/02 03:47:14;;;;;;;3.33;2.10;;;;;;;21.04;nan;99872.94;5113264;28;20416;-63
2022/03/02 03:49:40;;;;;;;3.40;2.30;;;;;;;21.01;nan;99865.31;5113270;28;20043;-63
2022/03/02 03:52:06;;;;;;;3.42;2.35;;;;;;;21.03;nan;99862.16;5113116;28;20102;-63
2022/03/02 03:54:31;;;;;;;3.28;2.10;;;;;;;21.00;nan;99860.91;5113154;28;20043;-63
2022/03/02 03:56:57;;;;;;;8.10;2.05;;;;;;;21.04;nan;99867.38;5113268;28;20055;-63
2022/03/02 03:59:22;;;;;;;2.97;2.05;;;;;;;21.03;nan;99859.38;5112982;28;20075;-63
2022/03/02 04:01:48;;;;;;;4.20;2.50;;;;;;;21.02;nan;99868.91;5113076;28;20075;-63
2022/03/02 04:04:13;;;;;;;3.20;2.40;;;;;;;21.02;nan;99869.72;5112966;28;20571;-63
2022/03/02 04:06:38;;;;;;;3.65;2.20;;;;;;;21.01;nan;99864.53;5112851;28;20044;-63
2022/03/02 04:09:04;;;;;;;3.22;2.17;;;;;;;20.99;nan;99864.88;5112896;28;20051;-63
2022/03/02 04:11:30;;;;;;;3.20;2.20;;;;;;;20.97;nan;99858.06;5112991;28;20415;-63
2022/03/02 04:13:55;;;;;;;3.22;2.20;;;;;;;21.00;nan;99860.09;5112891;28;20062;-63
2022/03/02 04:16:21;;;;;;;3.30;2.40;;;;;;;21.00;nan;99854.53;5112653;28;20043;-60
2022/03/02 04:18:47;;;;;;;3.65;2.33;;;;;;;21.00;nan;99851.75;5112983;28;20381;-60
2022/03/02 04:21:12;;;;;;;3.50;2.42;;;;;;;20.99;nan;99859.31;5112813;28;20123;-60
2022/03/02 04:23:38;;;;;;;2.97;2.05;;;;;;;20.97;nan;99855.28;5111477;28;20051;-59
2022/03/02 04:26:03;;;;;;;2.70;1.92;;;;;;;20.98;nan;99854.91;5113001;28;20407;-59
2022/03/02 04:28:29;;;;;;;3.60;2.47;;;;;;;20.97;nan;99849.72;5112728;28;20086;-59
2022/03/02 04:30:55;;;;;;;3.28;2.50;;;;;;;20.96;nan;99854.47;5112681;28;20050;-59
2022/03/02 04:33:20;;;;;;;3.55;2.42;;;;;;;20.98;nan;99854.09;5112616;28;20040;-59
2022/03/02 04:35:46;;;;;;;3.17;2.38;;;;;;;20.97;nan;99850.53;5112751;28;20051;-59
2022/03/02 04:38:11;;;;;;;3.67;2.60;;;;;;;20.98;nan;99848.56;5112541;28;20123;-59
2022/03/02 04:40:37;;;;;;;3.58;2.50;;;;;;;20.97;nan;99846.94;5112129;28;20049;-59
2022/03/02 04:43:02;;;;;;;3.55;2.53;;;;;;;20.95;nan;99844.53;5112364;28;20073;-59
2022/03/02 04:45:28;;;;;;;4.00;2.53;;;;;;;20.94;nan;99837.38;5112381;28;20073;-59
2022/03/02 04:47:55;;;;;;;3.60;2.42;;;;;;;20.95;nan;99844.53;5112275;28;20036;-59
2022/03/02 04:50:22;;;;;;;3.65;2.58;;;;;;;20.94;nan;99842.13;5112397;28;20039;-60
2022/03/02 04:52:49;;;;;;;3.75;2.50;;;;;;;20.94;nan;99836.56;5111882;28;20043;-60
2022/03/02 04:55:16;;;;;;;3.05;2.50;;;;;;;20.92;nan;99850.00;5112023;28;20051;-60
2022/03/02 04:57:49;;;;;;;3.22;2.42;;;;;;;20.93;nan;99848.81;5112297;28;20048;-60
2022/03/02 05:00:23;;;;;;;3.38;2.50;;;;;;;20.93;nan;99846.84;5112113;28;20050;-60
2022/03/02 05:02:50;;;;;;;3.53;2.50;;;;;;;20.92;nan;99844.44;5112184;28;20100;-60
2022/03/02 05:05:17;;;;;;;3.28;2.33;;;;;;;20.93;nan;99846.84;5112074;28;20383;-60
2022/03/02 05:07:43;;;;;;;3.63;2.58;;;;;;;20.93;nan;99852.41;5111848;28;20039;-59
2022/03/02 05:10:10;;;;;;;3.95;2.60;;;;;;;20.92;nan;99856.38;5111807;28;20477;-60
2022/03/02 05:12:37;;;;;;;3.78;2.45;;;;;;;20.93;nan;99857.97;5111766;28;20051;-60
2022/03/02 05:15:04;;;;;;;3.70;2.60;;;;;;;20.89;nan;99857.13;5110467;28;20074;-60
2022/03/02 05:17:29;;;;;;;3.78;2.63;;;;;;;20.88;nan;99861.88;5111922;28;20104;-60
2022/03/02 05:19:55;;;;;;;3.55;2.50;;;;;;;20.91;nan;99856.75;5111989;28;20039;-60
2022/03/02 05:22:20;;;;;;;3.40;2.40;;;;;;;20.90;nan;99855.94;5111756;28;20035;-60
2022/03/02 05:24:46;;;;;;;4.22;2.47;;;;;;;20.91;nan;99865.88;5111750;28;20054;-60
2022/03/02 05:27:11;;;;;;;3.60;2.60;;;;;;;20.89;nan;99855.13;5111791;28;20045;-60
2022/03/02 05:29:36;;;;;;;3.70;2.60;;;;;;;20.86;nan;99853.09;5111669;28;20070;-60
2022/03/02 05:32:04;;;;;;;3.40;2.33;;;;;;;20.87;nan;99851.91;5111541;28;20046;-60
2022/03/02 05:34:29;;;;;;;3.85;2.72;;;;;;;20.87;nan;99853.91;5111400;28;20048;-60
2022/03/02 05:36:55;;;;;;;3.50;2.45;;;;;;;20.89;nan;99848.78;5111423;28;20096;-60
2022/03/02 05:39:20;;;;;;;3.20;2.25;;;;;;;20.88;nan;99838.81;5111538;28;20100;-60
2022/03/02 05:41:46;;;;;;;3.72;2.45;;;;;;;20.89;nan;99849.56;5111572;28;20058;-60
2022/03/02 05:44:12;;;;;;;3.10;2.40;;;;;;;20.89;nan;99851.56;5111307;28;20040;-63
2022/03/02 05:46:38;;;;;;;3.70;2.53;;;;;;;20.87;nan;99848.34;5111287;28;20134;-63
2022/03/02 05:49:05;;;;;;;3.20;2.38;;;;;;;20.87;nan;99846.34;5111263;28;20036;-64
2022/03/02 05:51:31;;;;;;;3.05;2.10;;;;;;;20.88;nan;99853.53;5111225;28;20055;-63
2022/03/02 05:53:59;;;;;;;3.45;2.35;;;;;;;20.89;nan;99849.56;5111165;28;20063;-63
2022/03/02 05:56:25;;;;;;;3.22;2.40;;;;;;;20.89;nan;99857.91;5111068;28;20508;-64
2022/03/02 05:58:51;;;;;;;3.58;2.25;;;;;;;20.91;nan;99853.97;5111324;28;20153;-63
2022/03/02 06:01:17;;;;;;;3.55;2.38;;;;;;;20.89;nan;99851.56;5111190;28;20043;-63
2022/03/02 06:03:44;;;;;;;2.78;2.03;;;;;;;20.88;nan;99859.09;5111065;28;20051;-63
2022/03/02 06:06:09;;;;;;;3.95;2.67;;;;;;;20.88;nan;99850.75;5109630;28;20414;-63
2022/03/02 06:08:35;;;;;;;3.60;2.40;;;;;;;20.91;nan;99860.31;5111102;28;20050;-63
2022/03/02 06:11:01;;;;;;;4.22;2.70;;;;;;;20.89;nan;99860.69;5109573;28;20134;-63
2022/03/02 06:13:26;;;;;;;3.25;2.30;;;;;;;20.89;nan;99852.34;5110799;28;20044;-63
2022/03/02 06:15:52;;;;;;;3.15;2.20;;;;;;;20.90;nan;99855.94;5110688;28;20403;-63
2022/03/02 06:18:18;;;;;;;2.88;2.03;;;;;;;20.89;nan;99849.56;5110957;28;20130;-63
2022/03/02 06:20:44;;;;;;;3.25;2.33;;;;;;;20.88;nan;99861.88;5110763;28;20126;-63
2022/03/02 06:23:10;;;;;;;3.65;2.53;;;;;;;20.86;nan;99853.09;5110633;28;20463;-63
2022/03/02 06:25:35;;;;;;;3.08;2.20;;;;;;;20.86;nan;99853.09;5110767;28;20039;-64
2022/03/02 06:28:01;;;;;;;3.65;2.58;;;;;;;20.90;nan;99864.28;5110471;28;20495;-63
2022/03/02 06:30:26;;;;;;;3.13;2.30;;;;;;;20.91;nan;99865.09;5110665;28;20050;-65
2022/03/02 06:32:53;;;;;;;3.90;2.28;;;;;;;20.95;nan;99860.41;5110478;28;20040;-64
2022/03/02 06:35:18;;;;;;;4.22;2.35;;;;;;;20.94;nan;99861.59;5110489;28;20040;-63
2022/03/02 06:37:45;;;;;;;3.88;2.63;;;;;;;20.93;nan;99868.28;5110525;28;20051;-64
2022/03/02 06:40:12;;;;;;;5.05;2.53;;;;;;;20.91;nan;99863.09;5110391;28;20044;-63
2022/03/02 06:42:47;;;;;;;9.63;2.70;;;;;;;20.89;nan;99857.91;5110193;28;20051;-63
2022/03/02 06:45:18;;;;;;;3.13;2.40;;;;;;;20.89;nan;99862.66;5110430;28;20116;-63
2022/03/02 06:47:52;;;;;;;4.57;2.28;;;;;;;20.87;nan;99854.69;5110348;28;20407;-63
2022/03/02 06:50:23;;;;;;;4.10;2.42;;;;;;;20.90;nan;99853.16;5110327;28;20089;-63
2022/03/02 06:52:53;;;;;;;3.78;2.55;;;;;;;20.92;nan;99855.56;5110384;28;20050;-64
2022/03/02 06:55:18;;;;;;;4.18;2.40;;;;;;;20.89;nan;99859.88;5110226;28;20130;-64
2022/03/02 06:57:52;;;;;;;3.55;2.35;;;;;;;20.89;nan;99862.66;5110167;28;20575;-64
2022/03/02 07:00:18;;;;;;;3.28;2.30;;;;;;;20.93;nan;99865.50;5110283;28;20130;-64
2022/03/02 07:02:51;;;;;;;3.72;2.53;;;;;;;20.95;nan;99877.09;5109985;28;20617;-64
2022/03/02 07:05:18;;;;;;;4.38;2.60;;;;;;;20.94;nan;99872.72;5108840;28;20040;-64
2022/03/02 07:07:44;;;;;;;3.60;2.55;;;;;;;20.93;nan;99879.41;5109942;28;20058;-64
2022/03/02 07:10:10;;;;;;;3.92;2.83;;;;;;;20.92;nan;99877.81;5109876;28;20051;-64
2022/03/02 07:12:37;;;;;;;4.13;2.85;;;;;;;20.93;nan;99874.66;5110295;28;20046;-64
2022/03/02 07:15:04;;;;;;;3.88;2.60;;;;;;;20.92;nan;99875.03;5110083;28;20040;-64
2022/03/02 07:17:32;;;;;;;3.78;2.90;;;;;;;20.94;nan;99881.06;5109250;28;20048;-63
2022/03/02 07:20:08;;;;;;;4.82;2.92;;;;;;;20.95;nan;99893.78;5109997;28;20052;-63
2022/03/02 07:22:36;;;;;;;3.63;2.63;;;;;;;20.95;nan;99879.88;5109954;28;20072;-63
2022/03/02 07:25:05;;;;;;;4.25;2.72;;;;;;;20.96;nan;99884.28;5109947;28;20036;-63
2022/03/02 07:27:31;;;;;;;3.55;2.60;;;;;;;20.96;nan;99884.28;5109795;28;20063;-62
2022/03/02 07:29:58;;;;;;;3.58;2.63;;;;;;;20.95;nan;99885.44;5109569;28;20457;-62
2022/03/02 07:32:30;;;;;;;3.80;2.75;;;;;;;20.95;nan;99877.91;5099368;28;20539;-62
2022/03/02 07:34:58;;;;;;;5.85;2.88;;;;;;;20.97;nan;99880.31;5108905;28;20694;-64
2022/03/02 07:37:26;;;;;;;7.60;3.10;;;;;;;20.97;nan;99880.31;5109154;28;20096;-64
2022/03/02 07:39:52;;;;;;;68.78;5.70;;;;;;;20.99;nan;99889.09;5108640;28;20564;-64
2022/03/02 07:42:19;;;;;;;14.93;4.07;;;;;;;20.98;nan;99888.28;5092283;28;20048;-64
2022/03/02 07:44:45;;;;;;;23.38;4.18;;;;;;;20.99;nan;99891.88;5089055;28;20103;-64
2022/03/02 07:47:11;;;;;;;21.15;3.78;;;;;;;21.00;nan;99887.91;5089038;28;20475;-65
2022/03/02 07:49:36;;;;;;;20.33;4.43;;;;;;;21.00;nan;99893.47;5091272;28;20058;-64
2022/03/02 07:52:05;;;;;;;16.42;3.60;;;;;;;20.97;nan;99895.03;5088731;28;20044;-64
2022/03/02 07:54:37;;;;;;;26.10;4.93;;;;;;;20.99;nan;99889.09;5096080;28;20051;-64
2022/03/02 07:57:03;;;;;;;10.02;3.72;;;;;;;21.00;nan;99885.13;5101850;28;20036;-64
2022/03/02 07:59:37;;;;;;;13.82;3.72;;;;;;;21.02;nan;99893.94;5104510;28;20040;-63
2022/03/02 08:02:05;;;;;;;9.23;3.25;;;;;;;21.04;nan;99897.97;5088299;28;20093;-65
2022/03/02 08:04:32;;;;;;;14.80;3.60;;;;;;;21.06;nan;99895.59;5096617;28;20044;-65
2022/03/02 08:06:57;;;;;;;23.55;3.80;;;;;;;21.10;nan;99898.47;5097740;28;20063;-66
2022/03/02 08:09:23;;;;;;;17.73;3.33;;;;;;;21.09;nan;99894.09;5097374;28;20039;-64
2022/03/02 08:11:48;;;;;;;14.73;3.80;;;;;;;21.07;nan;99890.84;5099617;28;20523;-64
2022/03/02 08:14:14;;;;;;;11.60;3.83;;;;;;;21.12;nan;99898.91;5101302;28;20062;-64
2022/03/02 08:16:43;;;;;;;8.68;3.22;;;;;;;21.16;nan;99894.25;5088028;28;20035;-62
2022/03/02 08:19:08;;;;;;;9.75;3.38;;;;;;;21.16;nan;99895.03;5101153;28;20525;-62
2022/03/02 08:21:35;;;;;;;15.43;3.97;;;;;;;21.14;nan;99891.81;5086497;28;20047;-64
2022/03/02 08:24:06;;;;;;;22.70;4.05;;;;;;;21.17;nan;99893.06;5086607;28;20063;-60
2022/03/02 08:26:34;;;;;;;7.93;3.03;;;;;;;21.17;nan;99884.72;5082681;28;20051;-60
2022/03/02 08:29:07;;;;;;;6.68;3.35;;;;;;;21.18;nan;99886.31;5088879;28;20058;-60
2022/03/02 08:31:36;;;;;;;9.70;3.75;;;;;;;21.21;nan;99888.38;5088907;28;20054;-64
2022/03/02 08:34:03;;;;;;;10.65;3.72;;;;;;;21.22;nan;99890.00;5098815;28;20051;-63
2022/03/02 08:36:33;;;;;;;10.30;3.35;;;;;;;21.20;nan;99877.59;5097865;28;20040;-64
2022/03/02 08:39:01;;;;;;;9.95;3.40;;;;;;;21.21;nan;99882.00;5097338;28;20052;-59
2022/03/02 08:41:27;;;;;;;9.65;3.20;;;;;;;21.25;nan;99880.09;5094675;28;20066;-62
2022/03/02 08:43:52;;;;;;;6.05;3.08;;;;;;;21.28;nan;99869.06;5096897;28;20044;-61
2022/03/02 08:46:18;;;;;;;6.50;3.22;;;;;;;21.33;nan;99873.53;5096213;28;20545;-62
2022/03/02 08:48:43;;;;;;;11.40;3.17;;;;;;;21.37;nan;99869.66;5097375;28;20046;-60
2022/03/02 08:51:09;;;;;;;7.28;3.25;;;;;;;21.33;nan;99865.19;5099094;28;20063;-59
2022/03/02 08:53:38;;;;;;;5.03;2.97;;;;;;;21.29;nan;99859.56;5099401;28;20813;-64
2022/03/02 08:56:06;;;;;;;10.98;3.25;;;;;;;21.27;nan;99853.50;5096127;28;20076;-62
2022/03/02 08:58:32;;;;;;;4.30;3.00;;;;;;;21.29;nan;99851.22;5094651;28;20503;-61
2022/03/02 09:01:00;;;;;;;4.85;2.92;;;;;;;21.31;nan;99857.22;5091415;28;20148;-60
2022/03/02 09:03:31;;;;;;;7.30;3.20;;;;;;;21.34;nan;99852.88;5096806;28;20044;-60
2022/03/02 09:05:57;;;;;;;9.95;3.20;;;;;;;21.34;nan;99845.34;5097908;28;20139;-65
2022/03/02 09:08:22;;;;;;;7.10;3.10;;;;;;;21.36;nan;99844.97;5096772;28;20118;-62
2022/03/02 09:10:48;;;;;;;7.38;3.17;;;;;;;21.35;nan;99838.59;5096871;28;20059;-64
2022/03/02 09:13:13;;;;;;;4.55;3.22;;;;;;;21.35;nan;99838.59;5096710;28;20039;-57
2022/03/02 09:15:40;;;;;;;7.88;3.15;;;;;;;21.35;nan;99835.81;5097557;28;20135;-60
2022/03/02 09:18:06;;;;;;;4.80;3.00;;;;;;;21.34;nan;99836.19;5099006;28;20126;-60
2022/03/02 09:20:32;;;;;;;5.13;3.22;;;;;;;21.36;nan;99836.63;5099628;28;20134;-62
2022/03/02 09:23:01;;;;;;;4.70;3.30;;;;;;;21.36;nan;99834.66;5093927;28;20388;-63
2022/03/02 09:25:29;;;;;;;4.70;3.22;;;;;;;21.37;nan;99827.94;5097699;28;20978;-64
2022/03/02 09:27:56;;;;;;;4.03;2.85;;;;;;;21.38;nan;99812.84;5095269;28;20036;-61
2022/03/02 09:30:22;;;;;;;5.03;3.28;;;;;;;21.41;nan;99812.09;5102377;28;20040;-62
2022/03/02 09:32:52;;;;;;;7.45;3.20;;;;;;;21.40;nan;99804.91;5103771;28;20101;-61
2022/03/02 09:35:19;;;;;;;5.85;3.35;;;;;;;21.40;nan;99798.53;5103330;28;20047;-60
2022/03/02 09:37:49;;;;;;;5.80;3.10;;;;;;;21.43;nan;99795.00;5082126;28;20584;-61
2022/03/02 09:40:28;;;;;;;12.30;4.60;;;;;;;21.45;nan;99794.66;5083578;28;20067;-62
2022/03/02 09:43:07;;;;;;;5.32;3.13;;;;;;;21.47;nan;99790.34;5079387;28;20056;-62
2022/03/02 09:45:34;;;;;;;6.75;4.47;;;;;;;21.51;nan;99782.06;5076894;28;20542;-60
2022/03/02 09:48:03;;;;;;;6.20;4.13;;;;;;;21.51;nan;99779.28;5078763;28;20120;-60
2022/03/02 09:50:31;;;;;;;5.78;3.97;;;;;;;21.46;nan;99769.25;5080196;28;20040;-60
2022/03/02 09:53:01;;;;;;;5.10;3.70;;;;;;;21.49;nan;99762.91;5077961;28;20047;-61
2022/03/02 09:55:26;;;;;;;8.02;3.47;;;;;;;21.47;nan;99758.91;5080505;28;20074;-61
2022/03/02 09:57:55;;;;;;;5.80;4.10;;;;;;;21.46;nan;99758.09;5081449;28;20153;-63
2022/03/02 10:00:22;;;;;;;5.68;3.58;;;;;;;21.51;nan;99755.03;5077706;28;20580;-62
2022/03/02 10:02:51;;;;;;;5.35;3.97;;;;;;;21.50;nan;99749.81;5077173;28;20044;-59
2022/03/02 10:05:21;;;;;;;5.47;4.07;;;;;;;21.52;nan;99755.81;5076798;28;20508;-61
2022/03/02 10:08:07;;;;;;;6.63;4.68;;;;;;;21.55;nan;99738.38;5075249;28;20044;-63
2022/03/02 10:10:38;;;;;;;9.63;4.70;;;;;;;21.53;nan;99738.75;5071392;28;20605;-63
2022/03/02 10:13:10;;;;;;;5.93;3.90;;;;;;;21.54;nan;99742.34;5075067;28;20051;-63
2022/03/02 10:15:37;;;;;;;7.90;4.45;;;;;;;21.54;nan;99737.56;5081740;28;20045;-60
2022/03/02 10:18:03;;;;;;;6.68;3.97;;;;;;;21.50;nan;99730.31;5076286;28;20516;-64
2022/03/02 10:20:35;;;;;;;6.15;4.10;;;;;;;21.53;nan;99730.41;5077193;28;20055;-60
2022/03/02 10:23:22;;;;;;;6.28;3.85;;;;;;;21.57;nan;99725.69;5074889;28;20842;-62
2022/03/02 10:26:15;;;;;;;9.90;3.90;;;;;;;21.57;nan;99714.56;5081682;28;20103;-61
2022/03/02 10:28:47;;;;;;;5.88;3.90;;;;;;;21.57;nan;99714.56;5075470;28;20598;-62
2022/03/02 10:31:33;;;;;;;5.63;3.58;;;;;;;21.54;nan;99712.53;5073022;28;20083;-62
2022/03/02 10:34:07;;;;;;;6.75;3.80;;;;;;;21.56;nan;99712.94;5080912;28;20526;-64
2022/03/02 10:36:37;;;;;;;6.60;3.33;;;;;;;21.52;nan;99697.38;5084448;28;20055;-62
2022/03/02 10:39:06;;;;;;;6.57;3.67;;;;;;;21.52;nan;99694.59;5076931;28;20109;-65
2022/03/02 10:41:37;;;;;;;5.50;3.53;;;;;;;21.54;nan;99695.03;5080603;28;20093;-63
2022/03/02 10:44:17;;;;;;;5.38;3.10;;;;;;;21.52;nan;99694.59;5076931;28;20084;-62
2022/03/02 10:46:50;;;;;;;5.82;3.53;;;;;;;21.50;nan;99680.22;5078024;28;20068;-61
2022/03/02 10:49:20;;;;;;;7.13;3.47;;;;;;;21.51;nan;99679.06;5077848;28;20052;-60
2022/03/02 10:51:47;;;;;;;9.52;3.28;;;;;;;21.50;nan;99681.03;5072718;28;20040;-59
2022/03/02 10:54:20;;;;;;;9.60;3.15;;;;;;;21.55;nan;99666.81;5076197;28;20044;-60
2022/03/02 10:56:49;;;;;;;8.88;3.30;;;;;;;21.53;nan;99660.81;5078446;28;20135;-63
2022/03/02 10:59:20;;;;;;;5.60;3.30;;;;;;;21.48;nan;99660.31;5084620;28;20040;-62
2022/03/02 11:01:48;;;;;;;7.15;3.33;;;;;;;21.53;nan;99662.81;5072494;28;20048;-62
2022/03/02 11:04:17;;;;;;;4.95;2.92;;;;;;;21.50;nan;99653.19;5064156;28;20044;-61
2022/03/02 11:06:44;;;;;;;7.90;2.53;;;;;;;21.42;nan;99649.50;5083631;28;20050;-62
2022/03/02 11:09:09;;;;;;;7.05;2.80;;;;;;;21.41;nan;99644.31;5059477;28;20044;-62
2022/03/02 11:11:38;;;;;;;10.23;2.50;;;;;;;21.38;nan;99645.06;5074499;28;20044;-62
2022/03/02 11:14:04;;;;;;;5.15;2.55;;;;;;;21.35;nan;99640.25;5077746;28;20079;-62
2022/03/02 11:16:30;;;;;;;5.25;2.70;;;;;;;21.33;nan;99639.81;5063979;28;20536;-62
2022/03/02 11:18:56;;;;;;;6.95;2.50;;;;;;;21.30;nan;99627.47;5083033;28;20040;-62
2022/03/02 11:21:29;;;;;;;4.85;2.60;;;;;;;21.27;nan;99625.38;5072491;28;20048;-62
2022/03/02 11:24:00;;;;;;;5.90;2.70;;;;;;;21.25;nan;99619.41;5080198;28;20040;-63
2022/03/02 11:26:37;;;;;;;11.70;2.00;;;;;;;21.25;nan;99619.41;5084769;28;20090;-62
2022/03/02 11:29:12;;;;;;;4.13;2.50;;;;;;;21.24;nan;99617.00;5074878;28;20052;-63
2022/03/02 11:31:46;;;;;;;3.58;2.45;;;;;;;21.23;nan;99609.81;5079642;28;20756;-62
2022/03/02 11:34:18;;;;;;;8.90;2.40;;;;;;;21.25;nan;99607.47;5076260;28;20098;-62
2022/03/02 11:36:46;;;;;;;3.25;2.20;;;;;;;21.23;nan;99595.91;5081507;28;20569;-62
2022/03/02 11:39:14;;;;;;;3.63;2.17;;;;;;;21.24;nan;99589.19;5062873;28;20045;-62
2022/03/02 11:41:42;;;;;;;3.80;2.10;;;;;;;21.26;nan;99590.41;5079893;28;20043;-62
2022/03/02 11:44:42;;;;;;;3.05;2.03;;;;;;;21.26;nan;99581.25;5079983;28;20169;-63
2022/03/02 11:47:13;;;;;;;4.25;2.35;;;;;;;21.23;nan;99579.22;5070483;28;20059;-63
2022/03/02 11:49:49;;;;;;;4.75;2.20;;;;;;;21.22;nan;99572.88;5078348;28;20063;-63